createdAt,value
2018-09-11T00:04:00.317Z,21.20
2018-09-11T00:09:04.199Z,21.20
2018-09-11T00:14:07.419Z,21.20
2018-09-11T00:19:10.714Z,21.20
2018-09-11T00:24:13.980Z,21.20
2018-09-11T00:29:17.276Z,21.20
2018-09-11T00:34:20.504Z,21.20
2018-09-11T00:39:23.748Z,21.20
2018-09-11T00:44:27.049Z,21.20
2018-09-11T00:49:30.427Z,21.10
2018-09-11T00:54:33.675Z,21.10
2018-09-11T00:59:36.947Z,21.10
2018-09-11T01:04:40.211Z,21.00
2018-09-11T01:09:43.541Z,21.00
2018-09-11T01:14:46.736Z,21.00
2018-09-11T01:19:50.004Z,21.10
2018-09-11T01:24:53.267Z,20.80
2018-09-11T01:29:56.507Z,21.00
2018-09-11T01:34:59.771Z,21.00
2018-09-11T01:40:03.010Z,21.00
2018-09-11T01:45:06.437Z,20.90
2018-09-11T01:50:09.747Z,21.10
2018-09-11T01:55:12.988Z,20.80
2018-09-11T02:00:17.096Z,20.90
2018-09-11T02:05:20.328Z,20.80
2018-09-11T02:10:23.591Z,20.80
2018-09-11T02:15:26.844Z,20.80
2018-09-11T02:20:30.116Z,20.80
2018-09-11T02:25:33.357Z,20.90
2018-09-11T02:30:36.647Z,20.80
2018-09-11T02:35:39.901Z,20.70
2018-09-11T02:40:43.128Z,20.80
2018-09-11T02:45:46.394Z,20.80
2018-09-11T02:50:49.632Z,20.70
2018-09-11T02:55:52.874Z,20.70
2018-09-11T03:00:56.103Z,20.70
2018-09-11T03:05:59.394Z,20.50
2018-09-11T03:11:02.645Z,20.60
2018-09-11T03:16:05.890Z,20.60
2018-09-11T03:21:09.174Z,20.60
2018-09-11T03:26:12.404Z,20.60
2018-09-11T03:31:15.661Z,20.60
2018-09-11T03:36:19.026Z,20.60
2018-09-11T03:41:22.290Z,20.50
2018-09-11T03:46:25.581Z,20.40
2018-09-11T03:51:28.809Z,20.50
2018-09-11T03:56:32.055Z,20.50
2018-09-11T04:01:35.330Z,20.50
2018-09-11T04:06:38.583Z,20.40
2018-09-11T04:11:42.400Z,20.40
2018-09-11T04:16:45.645Z,20.40
2018-09-11T04:21:48.908Z,20.40
2018-09-11T04:26:52.138Z,20.30
2018-09-11T04:31:55.382Z,20.30
2018-09-11T04:36:58.625Z,20.30
2018-09-11T04:42:01.931Z,20.30
2018-09-11T04:47:05.312Z,20.30
2018-09-11T04:52:08.620Z,20.20
2018-09-11T04:57:11.857Z,20.30
2018-09-11T05:02:15.123Z,20.20
2018-09-11T05:07:18.376Z,20.30
2018-09-11T05:12:21.647Z,20.20
2018-09-11T05:17:24.951Z,20.20
2018-09-11T05:22:28.272Z,20.10
2018-09-11T05:27:31.563Z,20.10
2018-09-11T05:32:34.776Z,20.10
2018-09-11T05:37:38.004Z,19.90
2018-09-11T05:42:41.278Z,20.10
2018-09-11T05:47:44.521Z,20.10
2018-09-11T05:52:47.773Z,20.00
2018-09-11T05:57:51.020Z,20.10
2018-09-11T06:03:01.045Z,19.80
2018-09-11T06:08:04.272Z,20.00
2018-09-11T06:13:07.532Z,20.10
2018-09-11T06:18:10.778Z,20.10
2018-09-11T06:23:14.037Z,20.20
2018-09-11T06:28:17.236Z,20.10
2018-09-11T06:33:20.468Z,20.00
2018-09-11T06:38:23.724Z,20.00
2018-09-11T06:43:26.953Z,20.00
2018-09-11T06:48:30.265Z,20.10
2018-09-11T06:53:33.504Z,20.10
2018-09-11T06:58:36.748Z,20.20
2018-09-11T07:03:39.981Z,20.00
2018-09-11T07:08:43.214Z,20.20
2018-09-11T07:13:46.480Z,20.20
2018-09-11T07:18:49.735Z,20.20
2018-09-11T07:23:52.953Z,20.20
2018-09-11T07:28:56.179Z,20.20
2018-09-11T07:33:59.416Z,20.30
2018-09-11T07:39:02.649Z,20.30
2018-09-11T07:44:05.872Z,20.30
2018-09-11T07:49:09.124Z,20.40
2018-09-11T07:54:12.375Z,20.40
2018-09-11T07:59:15.606Z,20.40
2018-09-11T08:04:18.823Z,20.40
2018-09-11T08:09:22.106Z,20.60
2018-09-11T08:14:25.324Z,20.40
2018-09-11T08:19:28.544Z,20.60
2018-09-11T08:24:31.782Z,20.60
2018-09-11T08:29:35.012Z,20.60
2018-09-11T08:34:38.268Z,20.70
2018-09-11T08:39:41.541Z,20.70
2018-09-11T08:44:44.762Z,20.80
2018-09-11T08:49:48.015Z,20.80
2018-09-11T08:54:51.272Z,20.90
2018-09-11T08:59:54.513Z,20.90
2018-09-11T09:04:57.748Z,21.00
2018-09-11T09:10:01.044Z,21.00
2018-09-11T09:15:04.312Z,21.10
2018-09-11T09:20:07.568Z,21.10
2018-09-11T09:25:10.788Z,21.20
2018-09-11T09:30:14.036Z,21.20
2018-09-11T09:35:17.320Z,21.30
2018-09-11T09:40:20.699Z,21.40
2018-09-11T09:45:24.084Z,21.40
2018-09-11T09:50:27.317Z,21.50
2018-09-11T09:55:30.548Z,21.60
2018-09-11T10:00:39.245Z,21.60
2018-09-11T10:05:42.502Z,21.70
2018-09-11T10:10:45.764Z,21.80
2018-09-11T10:15:48.989Z,21.80
2018-09-11T10:20:52.229Z,21.90
2018-09-11T10:25:55.472Z,22.00
2018-09-11T10:30:58.724Z,22.10
2018-09-11T10:36:01.957Z,22.10
2018-09-11T10:41:05.259Z,22.30
2018-09-11T10:46:08.501Z,22.30
2018-09-11T10:51:11.744Z,22.40
2018-09-11T10:56:14.994Z,22.50
2018-09-11T11:01:18.233Z,22.50
2018-09-11T11:06:21.580Z,22.70
2018-09-11T11:11:24.838Z,22.80
2018-09-11T11:16:28.075Z,22.80
2018-09-11T11:21:31.329Z,22.90
2018-09-11T11:26:34.573Z,23.00
2018-09-11T11:31:37.852Z,23.10
2018-09-11T11:36:41.150Z,23.10
2018-09-11T11:41:44.422Z,23.20
2018-09-11T11:46:47.616Z,23.20
2018-09-11T11:51:50.849Z,23.30
2018-09-11T11:56:54.111Z,23.40
2018-09-11T12:01:57.389Z,23.40
2018-09-11T12:07:00.580Z,23.40
2018-09-11T12:12:03.840Z,23.50
2018-09-11T12:17:07.240Z,23.50
2018-09-11T12:22:10.437Z,23.50
2018-09-11T12:27:13.680Z,23.60
2018-09-11T12:32:16.936Z,23.60
2018-09-11T12:37:20.172Z,23.60
2018-09-11T12:42:23.397Z,23.60
2018-09-11T12:47:26.982Z,23.60
2018-09-11T12:52:29.949Z,23.70
2018-09-11T12:57:33.160Z,24.10
2018-09-11T13:02:36.389Z,24.30
2018-09-11T13:07:39.648Z,24.40
2018-09-11T13:12:42.912Z,24.40
2018-09-11T13:17:46.136Z,24.30
2018-09-11T13:22:49.432Z,24.20
2018-09-11T13:27:52.717Z,24.10
2018-09-11T13:32:55.956Z,24.10
2018-09-11T13:37:59.232Z,24.00
2018-09-11T13:43:02.484Z,24.00
2018-09-11T13:48:06.085Z,24.00
2018-09-11T13:53:09.360Z,23.90
2018-09-11T13:58:12.591Z,23.90
2018-09-11T14:03:15.915Z,23.80
2018-09-11T14:08:19.172Z,23.90
2018-09-11T14:13:22.492Z,23.90
2018-09-11T14:18:25.724Z,24.00
2018-09-11T14:23:28.962Z,23.90
2018-09-11T14:28:32.285Z,23.90
2018-09-11T14:33:35.521Z,23.90
2018-09-11T14:38:39.275Z,23.90
2018-09-11T14:43:42.505Z,23.90
2018-09-11T14:48:45.764Z,23.80
2018-09-11T14:53:48.992Z,23.90
2018-09-11T14:58:52.212Z,23.90
2018-09-11T15:03:55.587Z,23.90
2018-09-11T15:08:58.848Z,23.90
2018-09-11T15:14:02.104Z,23.90
2018-09-11T15:19:05.438Z,23.90
2018-09-11T15:24:08.808Z,23.90
2018-09-11T15:29:12.316Z,23.90
2018-09-11T15:34:15.612Z,23.90
2018-09-11T15:39:18.851Z,23.90
2018-09-11T15:44:22.133Z,23.80
2018-09-11T15:49:25.500Z,23.90
2018-09-11T15:54:28.783Z,23.90
2018-09-11T15:59:32.008Z,23.90
2018-09-11T16:04:35.235Z,23.90
2018-09-11T16:09:38.580Z,23.90
2018-09-11T16:14:41.804Z,23.80
2018-09-11T16:19:45.050Z,23.80
2018-09-11T16:24:48.292Z,23.80
2018-09-11T16:29:51.569Z,23.80
2018-09-11T16:34:54.777Z,23.80
2018-09-11T16:39:58.054Z,23.80
2018-09-11T16:45:01.295Z,23.80
2018-09-11T16:50:04.713Z,23.80
2018-09-11T16:55:07.972Z,23.80
2018-09-11T17:00:11.217Z,23.80
2018-09-11T17:05:14.480Z,23.80
2018-09-11T17:10:17.737Z,23.80
2018-09-11T17:15:20.965Z,23.80
2018-09-11T17:20:25.224Z,23.80
2018-09-11T17:25:28.508Z,23.80
2018-09-11T17:30:31.944Z,23.80
2018-09-11T17:35:35.300Z,23.70
2018-09-11T17:40:38.522Z,23.70
2018-09-11T17:45:41.876Z,23.70
2018-09-11T17:50:45.160Z,23.70
2018-09-11T17:55:48.464Z,23.70
2018-09-11T18:00:51.825Z,23.70
2018-09-11T18:05:55.190Z,23.60
2018-09-11T18:10:58.489Z,23.70
2018-09-11T18:16:01.786Z,23.70
2018-09-11T18:21:06.016Z,23.70
2018-09-11T18:26:09.307Z,23.60
2018-09-11T18:31:12.612Z,23.60
2018-09-11T18:36:15.900Z,23.60
2018-09-11T18:41:19.180Z,23.60
2018-09-11T18:46:22.429Z,23.60
2018-09-11T18:51:25.759Z,23.60
2018-09-11T18:56:28.954Z,23.60
2018-09-11T19:01:32.264Z,23.50
2018-09-11T19:06:35.515Z,23.60
2018-09-11T19:11:38.808Z,23.50
2018-09-11T19:16:42.100Z,23.50
2018-09-11T19:21:45.321Z,23.40
2018-09-11T19:26:48.610Z,23.40
2018-09-11T19:31:51.833Z,23.40
2018-09-11T19:36:55.513Z,23.40
2018-09-11T19:41:58.757Z,23.40
2018-09-11T19:47:02.020Z,23.30
2018-09-11T19:52:05.329Z,23.30
2018-09-11T19:57:08.620Z,23.30
2018-09-11T20:02:12.283Z,23.20
2018-09-11T20:07:16.053Z,23.20
2018-09-11T20:12:19.307Z,23.20
2018-09-11T20:17:22.567Z,23.10
2018-09-11T20:22:25.811Z,23.10
2018-09-11T20:27:29.056Z,23.10
2018-09-11T20:32:32.299Z,23.10
2018-09-11T20:37:35.605Z,23.00
2018-09-11T20:42:38.789Z,23.00
2018-09-11T20:47:42.063Z,23.00
2018-09-11T20:52:45.314Z,23.00
2018-09-11T20:57:48.609Z,22.90
2018-09-11T21:02:51.853Z,22.90
2018-09-11T21:07:55.108Z,22.80
2018-09-11T21:12:58.358Z,22.80
2018-09-11T21:18:01.589Z,22.70
2018-09-11T21:23:04.874Z,22.70
2018-09-11T21:28:08.122Z,22.70
2018-09-11T21:33:11.372Z,22.70
2018-09-11T21:38:14.608Z,22.70
2018-09-11T21:43:17.853Z,22.60
2018-09-11T21:48:21.107Z,22.60
2018-09-11T21:53:24.344Z,22.60
2018-09-11T21:58:27.603Z,22.50
2018-09-11T22:03:30.940Z,22.50
2018-09-11T22:08:34.188Z,22.50
2018-09-11T22:13:37.444Z,22.50
2018-09-11T22:18:40.701Z,22.50
2018-09-11T22:23:43.951Z,22.50
2018-09-11T22:28:47.220Z,22.60
2018-09-11T22:33:50.468Z,22.50
2018-09-11T22:38:53.705Z,22.50
2018-09-11T22:43:56.928Z,22.50
2018-09-11T22:49:00.225Z,22.50
2018-09-11T22:54:03.492Z,22.50
2018-09-11T22:59:06.745Z,22.40
2018-09-11T23:04:09.980Z,22.50
2018-09-11T23:09:13.227Z,22.40
2018-09-11T23:14:16.480Z,22.20
2018-09-11T23:19:19.948Z,22.20
2018-09-11T23:24:23.249Z,22.20
2018-09-11T23:29:26.496Z,22.20
2018-09-11T23:34:29.722Z,22.20
2018-09-11T23:39:32.969Z,22.20
2018-09-11T23:44:36.224Z,22.20
2018-09-11T23:49:39.467Z,22.20
2018-09-11T23:54:42.737Z,22.00
2018-09-11T23:59:45.977Z,22.20
